sensor_id;sensor_type;location;lat;lon;timestamp;P1;durP1;ratioP1;P2;durP2;ratioP2
20114;SDS011;10218;42.874;25.320;2023-03-31T00:00:17;13.47;;;5.63;;
20114;SDS011;10218;42.874;25.320;2023-03-31T00:02:44;12.47;;;5.67;;
20114;SDS011;10218;42.874;25.320;2023-03-31T00:05:11;13.70;;;6.70;;
20114;SDS011;10218;42.874;25.320;2023-03-31T00:07:43;10.37;;;5.77;;
20114;SDS011;10218;42.874;25.320;2023-03-31T00:10:11;12.13;;;6.20;;
20114;SDS011;10218;42.874;25.320;2023-03-31T00:12:42;11.10;;;5.97;;
20114;SDS011;10218;42.874;25.320;2023-03-31T00:15:09;10.80;;;5.83;;
20114;SDS011;10218;42.874;25.320;2023-03-31T00:17:36;11.77;;;6.10;;
20114;SDS011;10218;42.874;25.320;2023-03-31T00:20:04;11.23;;;5.73;;
20114;SDS011;10218;42.874;25.320;2023-03-31T00:22:34;9.10;;;5.43;;
20114;SDS011;10218;42.874;25.320;2023-03-31T00:25:04;12.17;;;5.50;;
20114;SDS011;10218;42.874;25.320;2023-03-31T00:27:32;11.67;;;5.80;;
20114;SDS011;10218;42.874;25.320;2023-03-31T00:29:59;10.93;;;5.60;;
20114;SDS011;10218;42.874;25.320;2023-03-31T00:32:26;9.93;;;4.97;;
20114;SDS011;10218;42.874;25.320;2023-03-31T00:34:53;9.53;;;5.30;;
20114;SDS011;10218;42.874;25.320;2023-03-31T00:37:20;8.90;;;5.00;;
20114;SDS011;10218;42.874;25.320;2023-03-31T00:39:48;9.60;;;5.50;;
20114;SDS011;10218;42.874;25.320;2023-03-31T00:42:15;10.90;;;5.60;;
20114;SDS011;10218;42.874;25.320;2023-03-31T00:47:41;9.53;;;5.30;;
20114;SDS011;10218;42.874;25.320;2023-03-31T00:50:15;8.60;;;5.17;;
20114;SDS011;10218;42.874;25.320;2023-03-31T00:52:46;12.40;;;4.80;;
20114;SDS011;10218;42.874;25.320;2023-03-31T00:55:21;13.67;;;6.13;;
20114;SDS011;10218;42.874;25.320;2023-03-31T00:57:56;10.33;;;5.63;;
20114;SDS011;10218;42.874;25.320;2023-03-31T01:00:24;12.60;;;5.67;;
20114;SDS011;10218;42.874;25.320;2023-03-31T01:02:52;7.97;;;4.40;;
20114;SDS011;10218;42.874;25.320;2023-03-31T01:05:26;12.13;;;5.60;;
20114;SDS011;10218;42.874;25.320;2023-03-31T01:08:15;6.97;;;3.20;;
20114;SDS011;10218;42.874;25.320;2023-03-31T01:10:47;5.00;;;2.93;;
20114;SDS011;10218;42.874;25.320;2023-03-31T01:13:17;9.30;;;3.60;;
20114;SDS011;10218;42.874;25.320;2023-03-31T01:15:45;6.73;;;3.90;;
20114;SDS011;10218;42.874;25.320;2023-03-31T01:18:13;10.83;;;3.83;;
20114;SDS011;10218;42.874;25.320;2023-03-31T01:35:19;2.53;;;1.83;;
20114;SDS011;10218;42.874;25.320;2023-03-31T01:43:55;4.13;;;2.33;;
20114;SDS011;10218;42.874;25.320;2023-03-31T01:49:18;3.60;;;2.50;;
20114;SDS011;10218;42.874;25.320;2023-03-31T01:54:47;6.93;;;3.00;;
20114;SDS011;10218;42.874;25.320;2023-03-31T01:57:21;9.03;;;4.37;;
20114;SDS011;10218;42.874;25.320;2023-03-31T02:00:02;6.00;;;3.70;;
20114;SDS011;10218;42.874;25.320;2023-03-31T02:02:38;5.63;;;3.40;;
20114;SDS011;10218;42.874;25.320;2023-03-31T02:05:22;5.57;;;3.53;;
20114;SDS011;10218;42.874;25.320;2023-03-31T02:07:53;7.23;;;3.60;;
20114;SDS011;10218;42.874;25.320;2023-03-31T02:10:24;7.70;;;4.00;;
20114;SDS011;10218;42.874;25.320;2023-03-31T02:12:56;4.57;;;2.93;;
20114;SDS011;10218;42.874;25.320;2023-03-31T02:15:27;6.57;;;3.80;;
20114;SDS011;10218;42.874;25.320;2023-03-31T02:17:59;7.43;;;4.10;;
20114;SDS011;10218;42.874;25.320;2023-03-31T02:20:31;9.00;;;4.07;;
20114;SDS011;10218;42.874;25.320;2023-03-31T02:22:59;10.17;;;4.43;;
20114;SDS011;10218;42.874;25.320;2023-03-31T02:25:31;7.97;;;4.30;;
20114;SDS011;10218;42.874;25.320;2023-03-31T02:28:08;10.97;;;4.83;;
20114;SDS011;10218;42.874;25.320;2023-03-31T02:30:48;10.00;;;4.53;;
20114;SDS011;10218;42.874;25.320;2023-03-31T02:33:17;9.07;;;4.97;;
20114;SDS011;10218;42.874;25.320;2023-03-31T02:35:44;6.87;;;4.10;;
20114;SDS011;10218;42.874;25.320;2023-03-31T02:38:11;9.40;;;4.60;;
20114;SDS011;10218;42.874;25.320;2023-03-31T02:40:38;9.10;;;4.30;;
20114;SDS011;10218;42.874;25.320;2023-03-31T02:43:06;9.33;;;4.30;;
20114;SDS011;10218;42.874;25.320;2023-03-31T02:48:27;7.47;;;4.30;;
20114;SDS011;10218;42.874;25.320;2023-03-31T02:53:43;8.10;;;4.20;;
20114;SDS011;10218;42.874;25.320;2023-03-31T02:56:30;8.30;;;4.53;;
20114;SDS011;10218;42.874;25.320;2023-03-31T03:02:25;9.77;;;5.03;;
20114;SDS011;10218;42.874;25.320;2023-03-31T03:16:09;11.07;;;5.23;;
20114;SDS011;10218;42.874;25.320;2023-03-31T03:18:51;15.03;;;7.67;;
20114;SDS011;10218;42.874;25.320;2023-03-31T03:21:23;12.23;;;6.60;;
20114;SDS011;10218;42.874;25.320;2023-03-31T03:23:50;10.43;;;6.07;;
20114;SDS011;10218;42.874;25.320;2023-03-31T03:26:18;12.30;;;5.40;;
20114;SDS011;10218;42.874;25.320;2023-03-31T03:28:50;9.23;;;5.70;;
20114;SDS011;10218;42.874;25.320;2023-03-31T03:31:17;14.50;;;6.30;;
20114;SDS011;10218;42.874;25.320;2023-03-31T03:33:45;10.90;;;6.10;;
20114;SDS011;10218;42.874;25.320;2023-03-31T03:36:12;11.63;;;6.27;;
20114;SDS011;10218;42.874;25.320;2023-03-31T03:38:39;13.00;;;6.67;;
20114;SDS011;10218;42.874;25.320;2023-03-31T03:41:06;15.40;;;6.80;;
20114;SDS011;10218;42.874;25.320;2023-03-31T03:43:34;13.80;;;6.97;;
20114;SDS011;10218;42.874;25.320;2023-03-31T03:46:01;14.67;;;7.43;;
20114;SDS011;10218;42.874;25.320;2023-03-31T03:48:28;12.60;;;6.40;;
20114;SDS011;10218;42.874;25.320;2023-03-31T03:50:58;10.97;;;6.10;;
20114;SDS011;10218;42.874;25.320;2023-03-31T03:53:25;11.20;;;6.33;;
20114;SDS011;10218;42.874;25.320;2023-03-31T03:55:52;13.33;;;6.70;;
20114;SDS011;10218;42.874;25.320;2023-03-31T03:58:20;8.90;;;5.63;;
20114;SDS011;10218;42.874;25.320;2023-03-31T04:00:47;12.10;;;6.60;;
20114;SDS011;10218;42.874;25.320;2023-03-31T04:03:15;12.80;;;8.20;;
20114;SDS011;10218;42.874;25.320;2023-03-31T04:05:42;14.83;;;7.30;;
20114;SDS011;10218;42.874;25.320;2023-03-31T04:08:09;17.67;;;7.90;;
20114;SDS011;10218;42.874;25.320;2023-03-31T04:10:36;16.87;;;8.07;;
20114;SDS011;10218;42.874;25.320;2023-03-31T04:13:03;16.63;;;7.23;;
20114;SDS011;10218;42.874;25.320;2023-03-31T04:15:30;17.13;;;9.37;;
20114;SDS011;10218;42.874;25.320;2023-03-31T04:17:57;22.43;;;9.57;;
20114;SDS011;10218;42.874;25.320;2023-03-31T04:20:24;20.47;;;10.17;;
20114;SDS011;10218;42.874;25.320;2023-03-31T04:22:56;20.07;;;10.37;;
20114;SDS011;10218;42.874;25.320;2023-03-31T04:25:23;20.33;;;9.90;;
20114;SDS011;10218;42.874;25.320;2023-03-31T04:27:50;20.87;;;10.27;;
20114;SDS011;10218;42.874;25.320;2023-03-31T04:30:21;21.57;;;10.20;;
20114;SDS011;10218;42.874;25.320;2023-03-31T04:32:54;25.00;;;10.43;;
20114;SDS011;10218;42.874;25.320;2023-03-31T04:35:22;20.93;;;11.47;;
20114;SDS011;10218;42.874;25.320;2023-03-31T04:37:52;21.90;;;11.23;;
20114;SDS011;10218;42.874;25.320;2023-03-31T04:40:24;27.80;;;12.07;;
20114;SDS011;10218;42.874;25.320;2023-03-31T04:42:51;20.90;;;12.20;;
20114;SDS011;10218;42.874;25.320;2023-03-31T04:45:18;22.83;;;12.63;;
20114;SDS011;10218;42.874;25.320;2023-03-31T04:47:45;25.97;;;13.13;;
20114;SDS011;10218;42.874;25.320;2023-03-31T04:50:13;30.03;;;13.07;;
20114;SDS011;10218;42.874;25.320;2023-03-31T04:52:41;29.30;;;14.13;;
20114;SDS011;10218;42.874;25.320;2023-03-31T04:55:08;23.27;;;14.53;;
20114;SDS011;10218;42.874;25.320;2023-03-31T04:57:36;28.73;;;15.27;;
20114;SDS011;10218;42.874;25.320;2023-03-31T05:00:03;38.87;;;18.60;;
20114;SDS011;10218;42.874;25.320;2023-03-31T05:02:33;34.80;;;16.67;;
20114;SDS011;10218;42.874;25.320;2023-03-31T05:05:01;36.43;;;16.33;;
20114;SDS011;10218;42.874;25.320;2023-03-31T05:07:28;29.50;;;15.57;;
20114;SDS011;10218;42.874;25.320;2023-03-31T05:09:55;31.57;;;13.97;;
20114;SDS011;10218;42.874;25.320;2023-03-31T05:12:22;28.47;;;14.63;;
20114;SDS011;10218;42.874;25.320;2023-03-31T05:14:49;34.93;;;16.50;;
20114;SDS011;10218;42.874;25.320;2023-03-31T05:17:16;40.10;;;17.00;;
20114;SDS011;10218;42.874;25.320;2023-03-31T05:19:43;38.20;;;18.40;;
20114;SDS011;10218;42.874;25.320;2023-03-31T05:22:10;49.17;;;21.63;;
20114;SDS011;10218;42.874;25.320;2023-03-31T05:24:37;56.10;;;24.37;;
20114;SDS011;10218;42.874;25.320;2023-03-31T05:27:05;58.77;;;25.57;;
20114;SDS011;10218;42.874;25.320;2023-03-31T05:29:32;63.57;;;25.37;;
20114;SDS011;10218;42.874;25.320;2023-03-31T05:31:59;49.00;;;23.63;;
20114;SDS011;10218;42.874;25.320;2023-03-31T05:34:27;45.47;;;20.17;;
20114;SDS011;10218;42.874;25.320;2023-03-31T05:36:54;41.07;;;19.70;;
20114;SDS011;10218;42.874;25.320;2023-03-31T05:39:21;40.03;;;19.17;;
20114;SDS011;10218;42.874;25.320;2023-03-31T05:41:48;40.43;;;19.37;;
20114;SDS011;10218;42.874;25.320;2023-03-31T05:44:16;37.43;;;18.73;;
20114;SDS011;10218;42.874;25.320;2023-03-31T05:46:43;39.13;;;19.87;;
20114;SDS011;10218;42.874;25.320;2023-03-31T05:49:10;40.57;;;21.20;;
20114;SDS011;10218;42.874;25.320;2023-03-31T05:51:37;43.03;;;21.67;;
20114;SDS011;10218;42.874;25.320;2023-03-31T05:54:04;37.83;;;19.27;;
20114;SDS011;10218;42.874;25.320;2023-03-31T05:56:32;42.50;;;21.77;;
20114;SDS011;10218;42.874;25.320;2023-03-31T05:58:59;36.30;;;18.93;;
20114;SDS011;10218;42.874;25.320;2023-03-31T06:01:26;38.43;;;21.57;;
20114;SDS011;10218;42.874;25.320;2023-03-31T06:03:55;40.30;;;18.03;;
20114;SDS011;10218;42.874;25.320;2023-03-31T06:06:23;35.07;;;20.93;;
20114;SDS011;10218;42.874;25.320;2023-03-31T06:08:50;42.23;;;18.67;;
20114;SDS011;10218;42.874;25.320;2023-03-31T06:11:19;37.87;;;18.90;;
20114;SDS011;10218;42.874;25.320;2023-03-31T06:13:47;35.30;;;19.30;;
20114;SDS011;10218;42.874;25.320;2023-03-31T06:16:18;43.07;;;21.73;;
20114;SDS011;10218;42.874;25.320;2023-03-31T06:18:45;43.10;;;20.47;;
20114;SDS011;10218;42.874;25.320;2023-03-31T06:21:13;41.63;;;20.70;;
20114;SDS011;10218;42.874;25.320;2023-03-31T06:23:42;43.00;;;22.37;;
20114;SDS011;10218;42.874;25.320;2023-03-31T06:26:11;48.33;;;22.93;;
20114;SDS011;10218;42.874;25.320;2023-03-31T06:28:41;47.97;;;24.13;;
20114;SDS011;10218;42.874;25.320;2023-03-31T06:31:09;50.73;;;25.37;;
20114;SDS011;10218;42.874;25.320;2023-03-31T06:33:39;49.90;;;22.80;;
20114;SDS011;10218;42.874;25.320;2023-03-31T06:36:07;44.33;;;23.73;;
20114;SDS011;10218;42.874;25.320;2023-03-31T06:38:35;45.87;;;24.20;;
20114;SDS011;10218;42.874;25.320;2023-03-31T06:41:07;41.00;;;21.73;;
20114;SDS011;10218;42.874;25.320;2023-03-31T06:43:34;40.43;;;20.50;;
20114;SDS011;10218;42.874;25.320;2023-03-31T06:46:01;41.87;;;21.33;;
20114;SDS011;10218;42.874;25.320;2023-03-31T06:48:29;42.43;;;21.20;;
20114;SDS011;10218;42.874;25.320;2023-03-31T06:50:58;40.67;;;22.27;;
20114;SDS011;10218;42.874;25.320;2023-03-31T06:53:26;55.27;;;25.17;;
20114;SDS011;10218;42.874;25.320;2023-03-31T06:55:54;58.10;;;29.60;;
20114;SDS011;10218;42.874;25.320;2023-03-31T06:58:21;49.13;;;27.57;;
20114;SDS011;10218;42.874;25.320;2023-03-31T07:00:48;48.73;;;27.40;;
20114;SDS011;10218;42.874;25.320;2023-03-31T07:03:16;51.43;;;26.70;;
20114;SDS011;10218;42.874;25.320;2023-03-31T07:05:47;47.13;;;25.90;;
20114;SDS011;10218;42.874;25.320;2023-03-31T07:08:16;51.87;;;26.40;;
20114;SDS011;10218;42.874;25.320;2023-03-31T07:10:44;53.30;;;26.40;;
20114;SDS011;10218;42.874;25.320;2023-03-31T07:13:17;49.30;;;24.80;;
20114;SDS011;10218;42.874;25.320;2023-03-31T07:15:47;44.57;;;22.93;;
20114;SDS011;10218;42.874;25.320;2023-03-31T07:18:16;54.90;;;26.30;;
20114;SDS011;10218;42.874;25.320;2023-03-31T07:20:48;39.40;;;22.73;;
20114;SDS011;10218;42.874;25.320;2023-03-31T07:23:18;29.30;;;14.67;;
20114;SDS011;10218;42.874;25.320;2023-03-31T07:25:46;26.00;;;13.73;;
20114;SDS011;10218;42.874;25.320;2023-03-31T07:28:14;28.07;;;15.53;;
20114;SDS011;10218;42.874;25.320;2023-03-31T07:30:42;21.53;;;11.93;;
20114;SDS011;10218;42.874;25.320;2023-03-31T07:33:09;28.57;;;13.30;;
20114;SDS011;10218;42.874;25.320;2023-03-31T07:35:37;17.97;;;10.40;;
20114;SDS011;10218;42.874;25.320;2023-03-31T07:38:06;21.77;;;11.40;;
20114;SDS011;10218;42.874;25.320;2023-03-31T07:40:35;14.63;;;8.50;;
20114;SDS011;10218;42.874;25.320;2023-03-31T07:43:03;12.20;;;7.10;;
20114;SDS011;10218;42.874;25.320;2023-03-31T07:45:30;26.90;;;12.60;;
20114;SDS011;10218;42.874;25.320;2023-03-31T07:47:58;30.70;;;14.60;;
20114;SDS011;10218;42.874;25.320;2023-03-31T07:50:26;30.47;;;15.97;;
20114;SDS011;10218;42.874;25.320;2023-03-31T07:52:53;46.73;;;22.63;;
20114;SDS011;10218;42.874;25.320;2023-03-31T07:55:20;37.20;;;20.23;;
20114;SDS011;10218;42.874;25.320;2023-03-31T07:57:49;38.33;;;23.47;;
20114;SDS011;10218;42.874;25.320;2023-03-31T08:00:17;46.07;;;24.23;;
20114;SDS011;10218;42.874;25.320;2023-03-31T08:02:44;31.87;;;18.60;;
20114;SDS011;10218;42.874;25.320;2023-03-31T08:05:12;33.90;;;22.23;;
20114;SDS011;10218;42.874;25.320;2023-03-31T08:07:42;36.97;;;24.20;;
20114;SDS011;10218;42.874;25.320;2023-03-31T08:10:13;54.10;;;30.13;;
20114;SDS011;10218;42.874;25.320;2023-03-31T08:12:46;66.47;;;38.17;;
20114;SDS011;10218;42.874;25.320;2023-03-31T08:15:13;62.27;;;37.03;;
20114;SDS011;10218;42.874;25.320;2023-03-31T08:17:41;63.63;;;35.37;;
20114;SDS011;10218;42.874;25.320;2023-03-31T08:20:09;61.33;;;35.93;;
20114;SDS011;10218;42.874;25.320;2023-03-31T08:22:37;105.97;;;58.60;;
20114;SDS011;10218;42.874;25.320;2023-03-31T08:25:06;103.43;;;53.90;;
20114;SDS011;10218;42.874;25.320;2023-03-31T08:27:34;75.30;;;45.60;;
20114;SDS011;10218;42.874;25.320;2023-03-31T08:30:03;68.90;;;39.47;;
20114;SDS011;10218;42.874;25.320;2023-03-31T08:32:32;65.00;;;36.73;;
20114;SDS011;10218;42.874;25.320;2023-03-31T08:35:00;53.50;;;32.03;;
20114;SDS011;10218;42.874;25.320;2023-03-31T08:37:27;75.20;;;45.83;;
20114;SDS011;10218;42.874;25.320;2023-03-31T08:39:54;59.97;;;36.57;;
20114;SDS011;10218;42.874;25.320;2023-03-31T08:42:24;38.80;;;22.73;;
20114;SDS011;10218;42.874;25.320;2023-03-31T08:44:59;36.13;;;18.20;;
20114;SDS011;10218;42.874;25.320;2023-03-31T08:47:30;24.43;;;16.10;;
20114;SDS011;10218;42.874;25.320;2023-03-31T08:50:05;22.83;;;13.97;;
20114;SDS011;10218;42.874;25.320;2023-03-31T08:52:43;25.43;;;12.93;;
20114;SDS011;10218;42.874;25.320;2023-03-31T08:55:26;19.63;;;12.47;;
20114;SDS011;10218;42.874;25.320;2023-03-31T09:00:43;16.57;;;10.43;;
20114;SDS011;10218;42.874;25.320;2023-03-31T09:03:17;15.00;;;9.10;;
20114;SDS011;10218;42.874;25.320;2023-03-31T09:06:01;24.13;;;12.00;;
20114;SDS011;10218;42.874;25.320;2023-03-31T09:08:36;12.87;;;6.90;;
20114;SDS011;10218;42.874;25.320;2023-03-31T09:11:07;11.83;;;7.00;;
20114;SDS011;10218;42.874;25.320;2023-03-31T09:19:00;12.50;;;7.33;;
20114;SDS011;10218;42.874;25.320;2023-03-31T09:21:31;9.53;;;5.80;;
20114;SDS011;10218;42.874;25.320;2023-03-31T09:26:52;10.23;;;5.70;;
20114;SDS011;10218;42.874;25.320;2023-03-31T09:32:24;11.43;;;6.20;;
20114;SDS011;10218;42.874;25.320;2023-03-31T09:34:56;15.70;;;7.40;;
20114;SDS011;10218;42.874;25.320;2023-03-31T09:37:30;13.77;;;7.80;;
20114;SDS011;10218;42.874;25.320;2023-03-31T09:39:58;14.63;;;6.33;;
20114;SDS011;10218;42.874;25.320;2023-03-31T09:42:36;9.17;;;5.27;;
20114;SDS011;10218;42.874;25.320;2023-03-31T09:45:04;10.17;;;5.00;;
20114;SDS011;10218;42.874;25.320;2023-03-31T09:47:41;9.70;;;4.83;;
20114;SDS011;10218;42.874;25.320;2023-03-31T09:50:11;15.40;;;6.00;;
20114;SDS011;10218;42.874;25.320;2023-03-31T09:52:39;9.73;;;5.00;;
20114;SDS011;10218;42.874;25.320;2023-03-31T09:55:14;15.67;;;4.90;;
20114;SDS011;10218;42.874;25.320;2023-03-31T09:57:51;8.13;;;4.40;;
20114;SDS011;10218;42.874;25.320;2023-03-31T10:00:20;8.67;;;4.70;;
20114;SDS011;10218;42.874;25.320;2023-03-31T10:02:52;14.00;;;4.70;;
20114;SDS011;10218;42.874;25.320;2023-03-31T10:05:30;7.77;;;4.87;;
20114;SDS011;10218;42.874;25.320;2023-03-31T10:10:38;7.53;;;4.60;;
20114;SDS011;10218;42.874;25.320;2023-03-31T10:13:13;7.90;;;4.73;;
20114;SDS011;10218;42.874;25.320;2023-03-31T10:15:44;9.57;;;5.23;;
20114;SDS011;10218;42.874;25.320;2023-03-31T10:18:16;8.60;;;5.10;;
20114;SDS011;10218;42.874;25.320;2023-03-31T10:20:49;12.03;;;8.63;;
20114;SDS011;10218;42.874;25.320;2023-03-31T10:25:47;7.10;;;4.77;;
20114;SDS011;10218;42.874;25.320;2023-03-31T10:28:16;9.50;;;4.40;;
20114;SDS011;10218;42.874;25.320;2023-03-31T10:30:46;8.10;;;4.50;;
20114;SDS011;10218;42.874;25.320;2023-03-31T10:33:21;13.10;;;4.97;;
20114;SDS011;10218;42.874;25.320;2023-03-31T10:35:54;14.30;;;4.90;;
20114;SDS011;10218;42.874;25.320;2023-03-31T10:38:25;13.17;;;5.20;;
20114;SDS011;10218;42.874;25.320;2023-03-31T10:41:09;7.33;;;5.07;;
20114;SDS011;10218;42.874;25.320;2023-03-31T10:43:39;9.57;;;4.67;;
20114;SDS011;10218;42.874;25.320;2023-03-31T10:46:07;10.33;;;5.90;;
20114;SDS011;10218;42.874;25.320;2023-03-31T10:48:37;12.90;;;5.90;;
20114;SDS011;10218;42.874;25.320;2023-03-31T10:51:20;10.37;;;5.33;;
20114;SDS011;10218;42.874;25.320;2023-03-31T10:53:59;13.07;;;5.73;;
20114;SDS011;10218;42.874;25.320;2023-03-31T10:59:17;14.80;;;6.30;;
20114;SDS011;10218;42.874;25.320;2023-03-31T11:29:59;10.33;;;5.27;;
20114;SDS011;10218;42.874;25.320;2023-03-31T11:32:46;9.27;;;5.50;;
20114;SDS011;10218;42.874;25.320;2023-03-31T11:51:08;12.30;;;5.50;;
20114;SDS011;10218;42.874;25.320;2023-03-31T11:53:40;11.20;;;5.80;;
20114;SDS011;10218;42.874;25.320;2023-03-31T11:56:11;9.50;;;5.40;;
20114;SDS011;10218;42.874;25.320;2023-03-31T11:58:40;7.47;;;4.83;;
20114;SDS011;10218;42.874;25.320;2023-03-31T12:01:28;8.50;;;4.80;;
20114;SDS011;10218;42.874;25.320;2023-03-31T12:06:34;9.07;;;5.57;;
20114;SDS011;10218;42.874;25.320;2023-03-31T12:11:43;9.67;;;5.23;;
20114;SDS011;10218;42.874;25.320;2023-03-31T12:14:47;10.77;;;5.30;;
20114;SDS011;10218;42.874;25.320;2023-03-31T12:17:32;5.93;;;4.30;;
20114;SDS011;10218;42.874;25.320;2023-03-31T12:20:02;10.40;;;4.40;;
20114;SDS011;10218;42.874;25.320;2023-03-31T12:22:41;12.67;;;4.20;;
20114;SDS011;10218;42.874;25.320;2023-03-31T12:25:14;5.93;;;4.10;;
20114;SDS011;10218;42.874;25.320;2023-03-31T12:27:45;11.70;;;4.30;;
20114;SDS011;10218;42.874;25.320;2023-03-31T12:30:33;9.67;;;3.80;;
20114;SDS011;10218;42.874;25.320;2023-03-31T12:50:55;6.23;;;3.10;;
20114;SDS011;10218;42.874;25.320;2023-03-31T12:56:21;8.07;;;3.53;;
20114;SDS011;10218;42.874;25.320;2023-03-31T12:58:48;9.60;;;3.73;;
20114;SDS011;10218;42.874;25.320;2023-03-31T13:01:17;6.63;;;3.30;;
20114;SDS011;10218;42.874;25.320;2023-03-31T13:09:04;7.13;;;3.33;;
20114;SDS011;10218;42.874;25.320;2023-03-31T13:16:42;6.57;;;4.00;;
20114;SDS011;10218;42.874;25.320;2023-03-31T13:19:26;8.10;;;4.43;;
20114;SDS011;10218;42.874;25.320;2023-03-31T13:22:02;9.90;;;3.50;;
20114;SDS011;10218;42.874;25.320;2023-03-31T13:24:31;7.40;;;3.00;;
20114;SDS011;10218;42.874;25.320;2023-03-31T13:30:01;4.53;;;3.10;;
20114;SDS011;10218;42.874;25.320;2023-03-31T13:32:28;9.67;;;2.73;;
20114;SDS011;10218;42.874;25.320;2023-03-31T13:35:03;7.93;;;3.70;;
20114;SDS011;10218;42.874;25.320;2023-03-31T13:40:42;8.10;;;3.30;;
20114;SDS011;10218;42.874;25.320;2023-03-31T13:51:56;6.20;;;3.33;;
20114;SDS011;10218;42.874;25.320;2023-03-31T13:54:37;16.17;;;10.20;;
20114;SDS011;10218;42.874;25.320;2023-03-31T14:02:59;21.17;;;12.03;;
20114;SDS011;10218;42.874;25.320;2023-03-31T14:05:41;9.17;;;4.67;;
20114;SDS011;10218;42.874;25.320;2023-03-31T14:16:37;8.87;;;3.83;;
20114;SDS011;10218;42.874;25.320;2023-03-31T14:22:15;7.40;;;4.97;;
20114;SDS011;10218;42.874;25.320;2023-03-31T14:28:09;7.40;;;3.60;;
20114;SDS011;10218;42.874;25.320;2023-03-31T14:33:50;6.73;;;4.67;;
20114;SDS011;10218;42.874;25.320;2023-03-31T14:36:32;5.77;;;3.87;;
20114;SDS011;10218;42.874;25.320;2023-03-31T14:39:13;8.63;;;4.13;;
20114;SDS011;10218;42.874;25.320;2023-03-31T14:41:53;10.73;;;5.13;;
20114;SDS011;10218;42.874;25.320;2023-03-31T14:44:22;9.63;;;4.80;;
20114;SDS011;10218;42.874;25.320;2023-03-31T14:46:54;5.80;;;3.60;;
20114;SDS011;10218;42.874;25.320;2023-03-31T14:49:27;8.27;;;3.33;;
20114;SDS011;10218;42.874;25.320;2023-03-31T14:52:00;7.37;;;3.10;;
20114;SDS011;10218;42.874;25.320;2023-03-31T14:54:37;9.87;;;3.17;;
20114;SDS011;10218;42.874;25.320;2023-03-31T14:57:04;7.17;;;4.77;;
20114;SDS011;10218;42.874;25.320;2023-03-31T14:59:32;6.20;;;3.33;;
20114;SDS011;10218;42.874;25.320;2023-03-31T15:02:03;8.40;;;3.70;;
20114;SDS011;10218;42.874;25.320;2023-03-31T15:04:34;9.43;;;4.67;;
20114;SDS011;10218;42.874;25.320;2023-03-31T15:07:10;5.27;;;3.90;;
20114;SDS011;10218;42.874;25.320;2023-03-31T15:09:38;6.80;;;3.50;;
20114;SDS011;10218;42.874;25.320;2023-03-31T15:12:11;14.07;;;8.83;;
20114;SDS011;10218;42.874;25.320;2023-03-31T15:14:45;8.47;;;4.40;;
20114;SDS011;10218;42.874;25.320;2023-03-31T15:17:18;6.93;;;4.03;;
20114;SDS011;10218;42.874;25.320;2023-03-31T15:19:53;10.23;;;5.57;;
20114;SDS011;10218;42.874;25.320;2023-03-31T15:22:22;6.77;;;4.73;;
20114;SDS011;10218;42.874;25.320;2023-03-31T15:24:52;10.30;;;4.60;;
20114;SDS011;10218;42.874;25.320;2023-03-31T15:27:33;8.13;;;4.47;;
20114;SDS011;10218;42.874;25.320;2023-03-31T15:30:04;8.33;;;4.30;;
20114;SDS011;10218;42.874;25.320;2023-03-31T15:32:35;7.03;;;4.40;;
20114;SDS011;10218;42.874;25.320;2023-03-31T15:35:05;9.67;;;4.33;;
20114;SDS011;10218;42.874;25.320;2023-03-31T15:37:46;8.80;;;4.57;;
20114;SDS011;10218;42.874;25.320;2023-03-31T15:40:20;12.07;;;4.67;;
20114;SDS011;10218;42.874;25.320;2023-03-31T15:42:55;6.77;;;4.07;;
20114;SDS011;10218;42.874;25.320;2023-03-31T15:47:55;7.53;;;4.20;;
20114;SDS011;10218;42.874;25.320;2023-03-31T15:50:22;5.60;;;4.40;;
20114;SDS011;10218;42.874;25.320;2023-03-31T15:52:54;6.80;;;4.17;;
20114;SDS011;10218;42.874;25.320;2023-03-31T15:55:30;7.40;;;4.70;;
20114;SDS011;10218;42.874;25.320;2023-03-31T15:58:07;8.13;;;4.73;;
20114;SDS011;10218;42.874;25.320;2023-03-31T16:00:44;11.27;;;5.10;;
20114;SDS011;10218;42.874;25.320;2023-03-31T16:05:54;8.67;;;5.60;;
20114;SDS011;10218;42.874;25.320;2023-03-31T16:08:30;15.00;;;9.57;;
20114;SDS011;10218;42.874;25.320;2023-03-31T16:11:08;15.80;;;10.67;;
20114;SDS011;10218;42.874;25.320;2023-03-31T16:13:42;12.53;;;8.37;;
20114;SDS011;10218;42.874;25.320;2023-03-31T16:16:14;14.30;;;9.03;;
20114;SDS011;10218;42.874;25.320;2023-03-31T16:18:46;15.17;;;9.10;;
20114;SDS011;10218;42.874;25.320;2023-03-31T16:21:26;15.60;;;8.90;;
20114;SDS011;10218;42.874;25.320;2023-03-31T16:23:57;17.37;;;8.03;;
20114;SDS011;10218;42.874;25.320;2023-03-31T16:26:26;13.27;;;8.63;;
20114;SDS011;10218;42.874;25.320;2023-03-31T16:28:54;14.73;;;8.40;;
20114;SDS011;10218;42.874;25.320;2023-03-31T16:31:27;16.03;;;9.00;;
20114;SDS011;10218;42.874;25.320;2023-03-31T16:33:56;17.37;;;11.67;;
20114;SDS011;10218;42.874;25.320;2023-03-31T16:36:23;21.30;;;12.70;;
20114;SDS011;10218;42.874;25.320;2023-03-31T16:38:51;24.40;;;13.63;;
20114;SDS011;10218;42.874;25.320;2023-03-31T16:41:20;21.90;;;13.70;;
20114;SDS011;10218;42.874;25.320;2023-03-31T16:43:49;20.27;;;13.43;;
20114;SDS011;10218;42.874;25.320;2023-03-31T16:46:20;21.07;;;13.60;;
20114;SDS011;10218;42.874;25.320;2023-03-31T16:48:48;27.10;;;13.53;;
20114;SDS011;10218;42.874;25.320;2023-03-31T16:51:16;20.30;;;12.90;;
20114;SDS011;10218;42.874;25.320;2023-03-31T16:53:43;23.17;;;14.00;;
20114;SDS011;10218;42.874;25.320;2023-03-31T16:56:12;39.83;;;24.77;;
20114;SDS011;10218;42.874;25.320;2023-03-31T16:58:40;46.73;;;28.50;;
20114;SDS011;10218;42.874;25.320;2023-03-31T17:01:08;52.33;;;29.40;;
20114;SDS011;10218;42.874;25.320;2023-03-31T17:03:36;115.03;;;69.10;;
20114;SDS011;10218;42.874;25.320;2023-03-31T17:06:11;83.57;;;49.80;;
20114;SDS011;10218;42.874;25.320;2023-03-31T17:08:38;56.40;;;36.07;;
20114;SDS011;10218;42.874;25.320;2023-03-31T17:11:07;42.20;;;27.63;;
20114;SDS011;10218;42.874;25.320;2023-03-31T17:13:38;47.80;;;32.87;;
20114;SDS011;10218;42.874;25.320;2023-03-31T17:16:06;61.73;;;38.73;;
20114;SDS011;10218;42.874;25.320;2023-03-31T17:18:38;50.20;;;31.63;;
20114;SDS011;10218;42.874;25.320;2023-03-31T17:21:07;69.43;;;43.20;;
20114;SDS011;10218;42.874;25.320;2023-03-31T17:23:39;51.33;;;34.63;;
20114;SDS011;10218;42.874;25.320;2023-03-31T17:26:07;56.63;;;37.20;;
20114;SDS011;10218;42.874;25.320;2023-03-31T17:28:35;101.37;;;59.93;;
20114;SDS011;10218;42.874;25.320;2023-03-31T17:31:13;74.23;;;42.40;;
20114;SDS011;10218;42.874;25.320;2023-03-31T17:33:41;66.63;;;37.40;;
20114;SDS011;10218;42.874;25.320;2023-03-31T17:36:09;62.20;;;36.50;;
20114;SDS011;10218;42.874;25.320;2023-03-31T17:38:37;64.90;;;36.57;;
20114;SDS011;10218;42.874;25.320;2023-03-31T17:41:06;56.90;;;33.27;;
20114;SDS011;10218;42.874;25.320;2023-03-31T17:43:35;54.87;;;34.17;;
20114;SDS011;10218;42.874;25.320;2023-03-31T17:46:04;60.40;;;34.80;;
20114;SDS011;10218;42.874;25.320;2023-03-31T17:48:34;53.50;;;32.93;;
20114;SDS011;10218;42.874;25.320;2023-03-31T17:51:05;56.07;;;34.20;;
20114;SDS011;10218;42.874;25.320;2023-03-31T17:53:33;54.10;;;31.43;;
20114;SDS011;10218;42.874;25.320;2023-03-31T17:56:02;49.43;;;29.53;;